CFG7DW LEPA-EDDF
Flight info
| Callsign | CFG7DW |
|---|---|
| Flight time | 1h 50m |
| Altitude | 38000 |
| Route | ISTER UN851 LUNOR DCT OKSER DCT NOSTA DCT ABESI N851 KUDIS DCT EMPAX EMPAX5A |
| Aircraft | A321/M-SDE3FGHIRWY/LB1 |
Departure
| Time | 2026-05-04 12:54 |
|---|---|
| Airport | Palma de Mallorca Airport (LEPA) |
Arrival
| Time | 2026-05-04 14:44 |
|---|---|
| Airport | Frankfurt Main Airport (EDDF) |
| Time | Latitude | Longitude | Altitude | Speed | Heading |
|---|---|---|---|---|---|
| 2026-05-04 12:33 | 39.55004 | 2.73729 | 38 ft | 0 kts | 239° |
| 2026-05-04 12:46 | 39.55011 | 2.73745 | 38 ft | 4 kts | 239° |
| 2026-05-04 12:46 | 39.55024 | 2.73775 | 37 ft | 4 kts | 240° |
| 2026-05-04 12:47 | 39.55035 | 2.73800 | 35 ft | 4 kts | 249° |
| 2026-05-04 12:47 | 39.55039 | 2.73831 | 36 ft | 4 kts | 288° |
| 2026-05-04 12:47 | 39.55026 | 2.73859 | 37 ft | 4 kts | 322° |
| 2026-05-04 12:47 | 39.55005 | 2.73877 | 38 ft | 4 kts | 329° |
| 2026-05-04 12:48 | 39.54988 | 2.73890 | 35 ft | 0 kts | 329° |
| 2026-05-04 12:49 | 39.55002 | 2.73879 | 38 ft | 7 kts | 329° |
| 2026-05-04 12:50 | 39.55081 | 2.73817 | 38 ft | 18 kts | 329° |
| 2026-05-04 12:50 | 39.55170 | 2.73806 | 38 ft | 12 kts | 42° |
| 2026-05-04 12:50 | 39.55253 | 2.73789 | 38 ft | 17 kts | 328° |
| 2026-05-04 12:50 | 39.55357 | 2.73707 | 38 ft | 17 kts | 328° |
| 2026-05-04 12:51 | 39.55452 | 2.73632 | 38 ft | 15 kts | 328° |
| 2026-05-04 12:51 | 39.55538 | 2.73564 | 37 ft | 14 kts | 328° |
| 2026-05-04 12:51 | 39.55627 | 2.73505 | 38 ft | 17 kts | 353° |
| 2026-05-04 12:51 | 39.55714 | 2.73624 | 38 ft | 22 kts | 58° |
| 2026-05-04 12:52 | 39.55791 | 2.73788 | 38 ft | 20 kts | 59° |
| 2026-05-04 12:52 | 39.55861 | 2.73937 | 38 ft | 18 kts | 59° |
| 2026-05-04 12:52 | 39.55923 | 2.74070 | 38 ft | 16 kts | 59° |
| 2026-05-04 12:52 | 39.55984 | 2.74198 | 37 ft | 19 kts | 58° |
| 2026-05-04 12:53 | 39.56088 | 2.74301 | 37 ft | 18 kts | 27° |
| 2026-05-04 12:53 | 39.56197 | 2.74339 | 38 ft | 16 kts | 336° |
| 2026-05-04 12:53 | 39.56216 | 2.74253 | 36 ft | 19 kts | 250° |
| 2026-05-04 12:53 | 39.56042 | 2.73876 | 38 ft | 82 kts | 238° |
| 2026-05-04 12:54 | 39.55479 | 2.72686 | 39 ft | 148 kts | 238° |
| 2026-05-04 12:54 | 39.54864 | 2.71433 | 205 ft | 172 kts | 237° |
| 2026-05-04 12:54 | 39.54260 | 2.70153 | 1033 ft | 165 kts | 238° |
| 2026-05-04 12:54 | 39.53858 | 2.69294 | 1406 ft | 166 kts | 239° |
| 2026-05-04 12:55 | 39.53221 | 2.67967 | 1609 ft | 182 kts | 232° |
| 2026-05-04 12:55 | 39.52144 | 2.66999 | 1732 ft | 203 kts | 196° |
| 2026-05-04 12:55 | 39.50685 | 2.67205 | 1867 ft | 230 kts | 155° |
| 2026-05-04 12:55 | 39.49569 | 2.68766 | 2220 ft | 249 kts | 118° |
| 2026-05-04 12:56 | 39.49039 | 2.70987 | 2558 ft | 268 kts | 103° |
| 2026-05-04 12:56 | 39.48784 | 2.73410 | 3208 ft | 275 kts | 98° |
| 2026-05-04 12:56 | 39.48606 | 2.75887 | 3907 ft | 279 kts | 98° |
| 2026-05-04 12:56 | 39.48417 | 2.78396 | 4619 ft | 281 kts | 99° |
| 2026-05-04 12:57 | 39.48194 | 2.80923 | 5302 ft | 284 kts | 100° |
| 2026-05-04 12:57 | 39.47935 | 2.83477 | 5974 ft | 287 kts | 101° |
| 2026-05-04 12:57 | 39.47648 | 2.86042 | 6643 ft | 289 kts | 102° |
| 2026-05-04 12:57 | 39.47342 | 2.88628 | 7287 ft | 292 kts | 102° |
| 2026-05-04 12:58 | 39.47021 | 2.91241 | 7910 ft | 295 kts | 103° |
| 2026-05-04 12:58 | 39.46695 | 2.93877 | 8537 ft | 299 kts | 103° |
| 2026-05-04 12:58 | 39.46368 | 2.96512 | 9173 ft | 302 kts | 103° |
| 2026-05-04 12:58 | 39.46026 | 2.99243 | 9820 ft | 305 kts | 103° |
| 2026-05-04 12:59 | 39.45688 | 3.01937 | 10254 ft | 314 kts | 103° |
| 2026-05-04 12:59 | 39.45323 | 3.04821 | 10374 ft | 335 kts | 103° |
| 2026-05-04 12:59 | 39.44935 | 3.07890 | 10498 ft | 356 kts | 102° |
| 2026-05-04 12:59 | 39.44527 | 3.11143 | 10605 ft | 374 kts | 102° |
| 2026-05-04 13:00 | 39.44109 | 3.14510 | 10964 ft | 383 kts | 102° |
| 2026-05-04 13:00 | 39.43689 | 3.17936 | 11478 ft | 388 kts | 102° |
| 2026-05-04 13:00 | 39.43364 | 3.21427 | 12011 ft | 394 kts | 94° |
| 2026-05-04 13:00 | 39.43544 | 3.24991 | 12550 ft | 401 kts | 82° |
| 2026-05-04 13:01 | 39.44273 | 3.28486 | 13085 ft | 406 kts | 69° |
| 2026-05-04 13:01 | 39.45535 | 3.31767 | 13612 ft | 410 kts | 59° |
| 2026-05-04 13:01 | 39.47003 | 3.34942 | 14106 ft | 413 kts | 59° |
| 2026-05-04 13:01 | 39.48484 | 3.38146 | 14572 ft | 417 kts | 59° |
| 2026-05-04 13:02 | 39.49980 | 3.41386 | 15008 ft | 421 kts | 59° |
| 2026-05-04 13:02 | 39.51485 | 3.44660 | 15435 ft | 424 kts | 59° |
| 2026-05-04 13:02 | 39.52993 | 3.47956 | 15881 ft | 428 kts | 58° |
| 2026-05-04 13:02 | 39.54516 | 3.51288 | 16304 ft | 432 kts | 58° |
| 2026-05-04 13:03 | 39.56053 | 3.54652 | 16734 ft | 435 kts | 58° |
| 2026-05-04 13:03 | 39.57600 | 3.58040 | 17158 ft | 439 kts | 58° |
| 2026-05-04 13:03 | 39.59163 | 3.61456 | 17582 ft | 442 kts | 58° |
| 2026-05-04 13:03 | 39.60735 | 3.64893 | 17994 ft | 445 kts | 58° |
| 2026-05-04 13:04 | 39.62321 | 3.68369 | 18389 ft | 449 kts | 58° |
| 2026-05-04 13:04 | 39.63895 | 3.71828 | 18751 ft | 452 kts | 58° |
| 2026-05-04 13:04 | 39.65518 | 3.75398 | 19110 ft | 455 kts | 58° |
| 2026-05-04 13:04 | 39.67108 | 3.78901 | 19455 ft | 458 kts | 59° |
| 2026-05-04 13:05 | 39.68729 | 3.82475 | 19802 ft | 461 kts | 59° |
| 2026-05-04 13:05 | 39.70357 | 3.86071 | 20147 ft | 464 kts | 59° |
| 2026-05-04 13:05 | 39.71994 | 3.89694 | 20480 ft | 467 kts | 59° |
| 2026-05-04 13:05 | 39.73644 | 3.93345 | 20817 ft | 470 kts | 59° |
| 2026-05-04 13:06 | 39.75305 | 3.97019 | 21154 ft | 473 kts | 59° |
| 2026-05-04 13:06 | 39.76980 | 4.00725 | 21490 ft | 476 kts | 59° |
| 2026-05-04 13:06 | 39.78662 | 4.04454 | 21819 ft | 480 kts | 59° |
| 2026-05-04 13:06 | 39.80355 | 4.08215 | 22141 ft | 483 kts | 59° |
| 2026-05-04 13:07 | 39.82051 | 4.11991 | 22460 ft | 486 kts | 59° |
| 2026-05-04 13:07 | 39.83764 | 4.15805 | 22768 ft | 489 kts | 59° |
| 2026-05-04 13:07 | 39.85484 | 4.19642 | 23090 ft | 493 kts | 59° |
| 2026-05-04 13:07 | 39.87217 | 4.23517 | 23393 ft | 496 kts | 59° |
| 2026-05-04 13:08 | 39.88956 | 4.27402 | 23668 ft | 499 kts | 59° |
| 2026-05-04 13:08 | 39.90708 | 4.31319 | 23941 ft | 501 kts | 60° |
| 2026-05-04 13:08 | 39.92463 | 4.35245 | 24233 ft | 503 kts | 60° |
| 2026-05-04 13:08 | 39.94228 | 4.39190 | 24518 ft | 505 kts | 59° |
| 2026-05-04 13:09 | 39.95999 | 4.43146 | 24790 ft | 507 kts | 60° |
| 2026-05-04 13:09 | 39.97779 | 4.47126 | 25064 ft | 508 kts | 60° |
| 2026-05-04 13:09 | 39.99564 | 4.51120 | 25338 ft | 510 kts | 60° |
| 2026-05-04 13:09 | 40.01333 | 4.55080 | 25613 ft | 512 kts | 60° |
| 2026-05-04 13:10 | 40.03124 | 4.59103 | 25843 ft | 514 kts | 60° |
| 2026-05-04 13:10 | 40.04922 | 4.63154 | 26094 ft | 516 kts | 60° |
| 2026-05-04 13:10 | 40.06720 | 4.67211 | 26338 ft | 519 kts | 60° |
| 2026-05-04 13:10 | 40.08530 | 4.71303 | 26573 ft | 521 kts | 60° |
| 2026-05-04 13:11 | 40.10341 | 4.75403 | 26819 ft | 522 kts | 60° |
| 2026-05-04 13:11 | 40.12157 | 4.79519 | 27064 ft | 524 kts | 60° |
| 2026-05-04 13:11 | 40.13985 | 4.83658 | 27298 ft | 526 kts | 60° |
| 2026-05-04 13:11 | 40.15821 | 4.87812 | 27545 ft | 528 kts | 60° |
| 2026-05-04 13:12 | 40.17663 | 4.91980 | 27796 ft | 529 kts | 60° |
| 2026-05-04 13:12 | 40.19500 | 4.96141 | 28148 ft | 529 kts | 60° |
| 2026-05-04 13:12 | 40.21332 | 5.00307 | 28465 ft | 529 kts | 60° |
| 2026-05-04 13:12 | 40.23166 | 5.04481 | 28774 ft | 529 kts | 60° |
| 2026-05-04 13:13 | 40.24999 | 5.08656 | 29065 ft | 529 kts | 60° |
| 2026-05-04 13:13 | 40.26823 | 5.12826 | 29377 ft | 529 kts | 60° |
| 2026-05-04 13:13 | 40.28651 | 5.17012 | 29701 ft | 528 kts | 60° |
| 2026-05-04 13:13 | 40.30475 | 5.21195 | 30011 ft | 528 kts | 60° |
| 2026-05-04 13:14 | 40.32291 | 5.25368 | 30277 ft | 528 kts | 60° |
| 2026-05-04 13:14 | 40.34109 | 5.29555 | 30538 ft | 528 kts | 60° |
| 2026-05-04 13:14 | 40.36110 | 5.33569 | 30802 ft | 526 kts | 51° |
| 2026-05-04 13:14 | 40.38517 | 5.37158 | 31067 ft | 523 kts | 41° |
| 2026-05-04 13:15 | 40.41264 | 5.40248 | 31322 ft | 518 kts | 32° |
| 2026-05-04 13:15 | 40.44288 | 5.42794 | 31580 ft | 513 kts | 23° |
| 2026-05-04 13:15 | 40.47496 | 5.44767 | 31833 ft | 508 kts | 18° |
| 2026-05-04 13:15 | 40.50747 | 5.46588 | 32091 ft | 508 kts | 18° |
| 2026-05-04 13:16 | 40.53997 | 5.48420 | 32351 ft | 508 kts | 18° |
| 2026-05-04 13:16 | 40.57246 | 5.50263 | 32616 ft | 508 kts | 18° |
| 2026-05-04 13:16 | 40.60482 | 5.52107 | 32889 ft | 507 kts | 18° |
| 2026-05-04 13:16 | 40.63723 | 5.53954 | 33161 ft | 507 kts | 18° |
| 2026-05-04 13:17 | 40.66957 | 5.55799 | 33415 ft | 506 kts | 18° |
| 2026-05-04 13:17 | 40.70181 | 5.57641 | 33687 ft | 506 kts | 18° |
| 2026-05-04 13:17 | 40.73409 | 5.59488 | 33952 ft | 505 kts | 18° |
| 2026-05-04 13:17 | 40.76631 | 5.61336 | 34182 ft | 505 kts | 18° |
| 2026-05-04 13:18 | 40.79849 | 5.63186 | 34407 ft | 504 kts | 18° |
| 2026-05-04 13:18 | 40.83058 | 5.65027 | 34632 ft | 503 kts | 18° |
| 2026-05-04 13:18 | 40.86230 | 5.66846 | 34841 ft | 503 kts | 18° |
| 2026-05-04 13:18 | 40.89437 | 5.68685 | 35056 ft | 502 kts | 18° |
| 2026-05-04 13:19 | 40.92643 | 5.70523 | 35258 ft | 502 kts | 18° |
| 2026-05-04 13:19 | 40.95846 | 5.72357 | 35461 ft | 501 kts | 18° |
| 2026-05-04 13:19 | 40.99043 | 5.74190 | 35665 ft | 500 kts | 18° |
| 2026-05-04 13:19 | 41.02234 | 5.76027 | 35859 ft | 500 kts | 18° |
| 2026-05-04 13:20 | 41.05415 | 5.77866 | 36057 ft | 499 kts | 18° |
| 2026-05-04 13:20 | 41.08602 | 5.79711 | 36243 ft | 499 kts | 18° |
| 2026-05-04 13:20 | 41.11781 | 5.81546 | 36441 ft | 498 kts | 18° |
| 2026-05-04 13:20 | 41.14953 | 5.83377 | 36627 ft | 497 kts | 18° |
| 2026-05-04 13:21 | 41.18123 | 5.85210 | 36836 ft | 497 kts | 18° |
| 2026-05-04 13:21 | 41.21286 | 5.87044 | 37013 ft | 496 kts | 18° |
| 2026-05-04 13:21 | 41.24403 | 5.88854 | 37179 ft | 495 kts | 18° |
| 2026-05-04 13:21 | 41.27600 | 5.90713 | 37345 ft | 494 kts | 18° |
| 2026-05-04 13:22 | 41.30701 | 5.92522 | 37541 ft | 494 kts | 18° |
| 2026-05-04 13:22 | 41.33841 | 5.94353 | 37761 ft | 492 kts | 18° |
| 2026-05-04 13:22 | 41.36970 | 5.96178 | 37957 ft | 491 kts | 18° |
| 2026-05-04 13:23 | 41.43234 | 5.99841 | 38006 ft | 491 kts | 18° |
| 2026-05-04 13:23 | 41.49497 | 6.03506 | 38009 ft | 491 kts | 18° |
| 2026-05-04 13:24 | 41.55751 | 6.07165 | 38010 ft | 490 kts | 18° |
| 2026-05-04 13:24 | 41.61995 | 6.10829 | 38011 ft | 490 kts | 18° |
| 2026-05-04 13:25 | 41.71355 | 6.16346 | 38021 ft | 490 kts | 18° |
| 2026-05-04 13:25 | 41.77595 | 6.20026 | 38031 ft | 490 kts | 18° |
| 2026-05-04 13:26 | 41.83840 | 6.23720 | 38040 ft | 491 kts | 18° |
| 2026-05-04 13:26 | 41.90093 | 6.27425 | 38045 ft | 491 kts | 18° |
| 2026-05-04 13:27 | 41.96344 | 6.31148 | 38047 ft | 491 kts | 18° |
| 2026-05-04 13:27 | 42.02549 | 6.35014 | 38044 ft | 495 kts | 24° |
| 2026-05-04 13:28 | 42.08546 | 6.39573 | 38044 ft | 495 kts | 24° |
| 2026-05-04 13:28 | 42.14520 | 6.44096 | 38049 ft | 496 kts | 24° |
| 2026-05-04 13:29 | 42.20530 | 6.48662 | 38052 ft | 496 kts | 24° |
| 2026-05-04 13:29 | 42.26529 | 6.53248 | 38052 ft | 496 kts | 24° |
| 2026-05-04 13:30 | 42.32528 | 6.57847 | 38059 ft | 496 kts | 24° |
| 2026-05-04 13:30 | 42.38538 | 6.62456 | 38063 ft | 496 kts | 24° |
| 2026-05-04 13:31 | 42.44542 | 6.67065 | 38055 ft | 496 kts | 24° |
| 2026-05-04 13:31 | 42.50547 | 6.71686 | 38063 ft | 496 kts | 24° |
| 2026-05-04 13:32 | 42.56551 | 6.76310 | 38065 ft | 496 kts | 24° |
| 2026-05-04 13:32 | 42.62551 | 6.80950 | 38062 ft | 497 kts | 24° |
| 2026-05-04 13:33 | 42.68555 | 6.85612 | 38072 ft | 497 kts | 24° |
| 2026-05-04 13:33 | 42.74556 | 6.90273 | 38067 ft | 496 kts | 24° |
| 2026-05-04 13:34 | 42.80550 | 6.94940 | 38068 ft | 496 kts | 24° |
| 2026-05-04 13:34 | 42.86541 | 6.99618 | 38075 ft | 496 kts | 24° |
| 2026-05-04 13:35 | 42.95485 | 7.06613 | 38074 ft | 496 kts | 24° |
| 2026-05-04 13:36 | 43.01468 | 7.11302 | 38071 ft | 496 kts | 24° |
| 2026-05-04 13:36 | 43.07448 | 7.16007 | 38077 ft | 496 kts | 24° |
| 2026-05-04 13:37 | 43.13420 | 7.20719 | 38086 ft | 495 kts | 24° |
| 2026-05-04 13:37 | 43.19389 | 7.25433 | 38082 ft | 495 kts | 24° |
| 2026-05-04 13:38 | 43.25352 | 7.30155 | 38079 ft | 494 kts | 24° |
| 2026-05-04 13:38 | 43.31302 | 7.34872 | 38084 ft | 494 kts | 25° |
| 2026-05-04 13:39 | 43.37248 | 7.39614 | 38097 ft | 494 kts | 25° |
| 2026-05-04 13:39 | 43.43186 | 7.44366 | 38098 ft | 494 kts | 25° |
| 2026-05-04 13:40 | 43.49129 | 7.49106 | 38097 ft | 493 kts | 25° |
| 2026-05-04 13:40 | 43.55057 | 7.53837 | 38104 ft | 492 kts | 25° |
| 2026-05-04 13:41 | 43.60975 | 7.58593 | 38104 ft | 492 kts | 25° |
| 2026-05-04 13:41 | 43.66877 | 7.63354 | 38106 ft | 491 kts | 25° |
| 2026-05-04 13:42 | 43.75685 | 7.70458 | 38108 ft | 490 kts | 25° |
| 2026-05-04 13:42 | 43.81583 | 7.75143 | 38115 ft | 486 kts | 20° |
| 2026-05-04 13:43 | 43.87807 | 7.78610 | 38135 ft | 481 kts | 15° |
| 2026-05-04 13:43 | 43.93014 | 7.81357 | 38138 ft | 481 kts | 15° |
| 2026-05-04 13:44 | 43.99250 | 7.84664 | 38154 ft | 480 kts | 15° |
| 2026-05-04 13:44 | 44.05495 | 7.87973 | 38157 ft | 480 kts | 15° |
| 2026-05-04 13:45 | 44.11723 | 7.91286 | 38158 ft | 479 kts | 15° |
| 2026-05-04 13:45 | 44.17948 | 7.94605 | 38155 ft | 478 kts | 16° |
| 2026-05-04 13:46 | 44.24160 | 7.97927 | 38153 ft | 478 kts | 16° |
| 2026-05-04 13:46 | 44.30365 | 8.01249 | 38148 ft | 478 kts | 16° |
| 2026-05-04 13:47 | 44.36565 | 8.04564 | 38144 ft | 477 kts | 16° |
| 2026-05-04 13:47 | 44.42760 | 8.07896 | 38142 ft | 477 kts | 16° |
| 2026-05-04 13:48 | 44.48941 | 8.11242 | 38144 ft | 476 kts | 16° |
| 2026-05-04 13:48 | 44.55118 | 8.14585 | 38144 ft | 475 kts | 16° |
| 2026-05-04 13:49 | 44.61288 | 8.17919 | 38132 ft | 475 kts | 16° |
| 2026-05-04 13:49 | 44.67456 | 8.21264 | 38140 ft | 475 kts | 17° |
| 2026-05-04 13:50 | 44.73580 | 8.24598 | 38144 ft | 475 kts | 17° |
| 2026-05-04 13:50 | 44.79736 | 8.27946 | 38137 ft | 474 kts | 17° |
| 2026-05-04 13:51 | 44.85890 | 8.31302 | 38138 ft | 474 kts | 17° |
| 2026-05-04 13:51 | 44.92035 | 8.34677 | 38143 ft | 474 kts | 17° |
| 2026-05-04 13:52 | 45.01242 | 8.39749 | 38143 ft | 473 kts | 17° |
| 2026-05-04 13:53 | 45.07377 | 8.43125 | 38146 ft | 473 kts | 17° |
| 2026-05-04 13:53 | 45.13503 | 8.46508 | 38138 ft | 472 kts | 17° |
| 2026-05-04 13:54 | 45.22683 | 8.51574 | 38139 ft | 472 kts | 18° |
| 2026-05-04 13:55 | 45.28545 | 8.54836 | 38138 ft | 471 kts | 18° |
| 2026-05-04 13:55 | 45.37692 | 8.59948 | 38141 ft | 470 kts | 18° |
| 2026-05-04 13:56 | 45.43779 | 8.63351 | 38138 ft | 470 kts | 18° |
| 2026-05-04 13:57 | 45.52862 | 8.68426 | 38140 ft | 469 kts | 18° |
| 2026-05-04 13:58 | 45.64988 | 8.75240 | 38141 ft | 468 kts | 18° |
| 2026-05-04 13:58 | 45.74075 | 8.80363 | 38136 ft | 468 kts | 18° |
| 2026-05-04 13:59 | 45.80125 | 8.83785 | 38138 ft | 468 kts | 19° |
| 2026-05-04 14:00 | 45.89191 | 8.88940 | 38137 ft | 467 kts | 19° |
| 2026-05-04 14:00 | 45.98248 | 8.94109 | 38132 ft | 467 kts | 19° |
| 2026-05-04 14:01 | 46.04290 | 8.97561 | 38123 ft | 467 kts | 19° |
| 2026-05-04 14:02 | 46.13381 | 9.02587 | 38135 ft | 465 kts | 12° |
| 2026-05-04 14:02 | 46.19739 | 9.03716 | 38135 ft | 458 kts | 354° |
| 2026-05-04 14:03 | 46.26072 | 9.02914 | 38122 ft | 457 kts | 351° |
| 2026-05-04 14:03 | 46.32421 | 9.02069 | 38123 ft | 458 kts | 351° |
| 2026-05-04 14:04 | 46.41958 | 9.00793 | 38116 ft | 459 kts | 351° |
| 2026-05-04 14:04 | 46.48322 | 8.99943 | 38109 ft | 460 kts | 351° |
| 2026-05-04 14:05 | 46.57887 | 8.98652 | 38101 ft | 461 kts | 351° |
| 2026-05-04 14:06 | 46.64276 | 8.97794 | 38086 ft | 461 kts | 351° |
| 2026-05-04 14:06 | 46.70657 | 8.96939 | 38075 ft | 461 kts | 351° |
| 2026-05-04 14:07 | 46.77054 | 8.96063 | 38067 ft | 461 kts | 352° |
| 2026-05-04 14:07 | 46.83453 | 8.95186 | 38044 ft | 461 kts | 351° |
| 2026-05-04 14:08 | 46.89844 | 8.94312 | 38041 ft | 462 kts | 351° |
| 2026-05-04 14:08 | 46.96256 | 8.93439 | 38041 ft | 463 kts | 351° |
| 2026-05-04 14:09 | 47.05831 | 8.92126 | 38025 ft | 463 kts | 351° |
| 2026-05-04 14:10 | 47.15315 | 8.90814 | 38013 ft | 463 kts | 351° |
| 2026-05-04 14:10 | 47.21721 | 8.89929 | 38006 ft | 463 kts | 351° |
| 2026-05-04 14:11 | 47.28156 | 8.89517 | 38002 ft | 466 kts | 3° |
| 2026-05-04 14:11 | 47.34490 | 8.91728 | 37998 ft | 470 kts | 17° |
| 2026-05-04 14:11 | 47.37575 | 8.93328 | 38000 ft | 471 kts | 17° |
| 2026-05-04 14:12 | 47.43818 | 8.96201 | 37996 ft | 468 kts | 7° |
| 2026-05-04 14:13 | 47.53490 | 8.96961 | 37994 ft | 464 kts | 358° |
| 2026-05-04 14:13 | 47.59960 | 8.97161 | 37994 ft | 465 kts | 358° |
| 2026-05-04 14:14 | 47.66431 | 8.97613 | 37992 ft | 467 kts | 2° |
| 2026-05-04 14:14 | 47.76128 | 8.99232 | 37996 ft | 468 kts | 4° |
| 2026-05-04 14:15 | 47.89074 | 9.01268 | 37997 ft | 467 kts | 2° |
| 2026-05-04 14:16 | 47.98784 | 9.02656 | 37997 ft | 467 kts | 3° |
| 2026-05-04 14:17 | 48.08444 | 9.04099 | 37996 ft | 467 kts | 3° |
| 2026-05-04 14:18 | 48.18141 | 9.05551 | 38001 ft | 467 kts | 3° |
| 2026-05-04 14:19 | 48.31061 | 9.07485 | 37402 ft | 465 kts | 3° |
| 2026-05-04 14:19 | 48.34277 | 9.07973 | 37050 ft | 465 kts | 3° |
| 2026-05-04 14:19 | 48.37500 | 9.08462 | 36706 ft | 465 kts | 3° |
| 2026-05-04 14:19 | 48.40723 | 9.08951 | 36369 ft | 465 kts | 3° |
| 2026-05-04 14:20 | 48.43945 | 9.09437 | 36046 ft | 466 kts | 3° |
| 2026-05-04 14:20 | 48.47171 | 9.09920 | 35941 ft | 465 kts | 3° |
| 2026-05-04 14:20 | 48.50397 | 9.10401 | 35977 ft | 467 kts | 3° |
| 2026-05-04 14:21 | 48.60110 | 9.11873 | 35976 ft | 468 kts | 3° |
| 2026-05-04 14:21 | 48.66586 | 9.12867 | 35975 ft | 468 kts | 3° |
| 2026-05-04 14:22 | 48.73060 | 9.13867 | 35976 ft | 468 kts | 3° |
| 2026-05-04 14:22 | 48.79541 | 9.14854 | 35975 ft | 468 kts | 3° |
| 2026-05-04 14:23 | 48.89257 | 9.16337 | 35978 ft | 468 kts | 3° |
| 2026-05-04 14:24 | 48.95734 | 9.17337 | 35978 ft | 468 kts | 3° |
| 2026-05-04 14:24 | 49.02215 | 9.18339 | 35984 ft | 468 kts | 3° |
| 2026-05-04 14:25 | 49.08696 | 9.19349 | 35906 ft | 469 kts | 2° |
| 2026-05-04 14:25 | 49.15168 | 9.20358 | 34684 ft | 471 kts | 2° |
| 2026-05-04 14:25 | 49.18432 | 9.20867 | 34082 ft | 471 kts | 2° |
| 2026-05-04 14:26 | 49.21702 | 9.21377 | 33408 ft | 472 kts | 2° |
| 2026-05-04 14:26 | 49.24969 | 9.21887 | 32734 ft | 473 kts | 2° |
| 2026-05-04 14:26 | 49.28251 | 9.22398 | 32076 ft | 474 kts | 2° |
| 2026-05-04 14:26 | 49.31541 | 9.22911 | 31422 ft | 476 kts | 2° |
| 2026-05-04 14:27 | 49.34837 | 9.23426 | 30804 ft | 476 kts | 2° |
| 2026-05-04 14:27 | 49.38131 | 9.23946 | 30192 ft | 475 kts | 2° |
| 2026-05-04 14:27 | 49.41414 | 9.24471 | 29509 ft | 474 kts | 2° |
| 2026-05-04 14:27 | 49.44695 | 9.24994 | 28808 ft | 473 kts | 2° |
| 2026-05-04 14:28 | 49.47964 | 9.25511 | 28133 ft | 471 kts | 3° |
| 2026-05-04 14:28 | 49.51215 | 9.26022 | 27469 ft | 469 kts | 3° |
| 2026-05-04 14:28 | 49.53370 | 9.26359 | 27039 ft | 468 kts | 3° |
| 2026-05-04 14:28 | 49.56603 | 9.26861 | 26404 ft | 466 kts | 3° |
| 2026-05-04 14:29 | 49.64086 | 9.28038 | 24968 ft | 462 kts | 3° |
| 2026-05-04 14:29 | 49.69442 | 9.28904 | 23900 ft | 461 kts | 6° |
| 2026-05-04 14:30 | 49.72602 | 9.29742 | 23226 ft | 461 kts | 9° |
| 2026-05-04 14:30 | 49.75696 | 9.30758 | 22477 ft | 445 kts | 11° |
| 2026-05-04 14:30 | 49.81459 | 9.32938 | 21077 ft | 409 kts | 9° |
| 2026-05-04 14:31 | 49.84210 | 9.33098 | 20400 ft | 387 kts | 345° |
| 2026-05-04 14:31 | 49.88264 | 9.28819 | 19100 ft | 342 kts | 294° |
| 2026-05-04 14:32 | 49.89521 | 9.22053 | 17761 ft | 320 kts | 275° |
| 2026-05-04 14:32 | 49.89842 | 9.18659 | 17058 ft | 317 kts | 275° |
| 2026-05-04 14:32 | 49.90207 | 9.15298 | 16360 ft | 315 kts | 278° |
| 2026-05-04 14:32 | 49.90657 | 9.11996 | 15679 ft | 313 kts | 280° |
| 2026-05-04 14:33 | 49.91190 | 9.08727 | 15014 ft | 311 kts | 282° |
| 2026-05-04 14:33 | 49.91773 | 9.05507 | 14371 ft | 309 kts | 283° |
| 2026-05-04 14:33 | 49.92379 | 9.02318 | 13715 ft | 307 kts | 284° |
| 2026-05-04 14:33 | 49.92987 | 8.99157 | 12986 ft | 305 kts | 284° |
| 2026-05-04 14:34 | 49.93587 | 8.96059 | 12284 ft | 301 kts | 284° |
| 2026-05-04 14:34 | 49.94195 | 8.92921 | 11598 ft | 299 kts | 285° |
| 2026-05-04 14:34 | 49.95181 | 8.90148 | 10924 ft | 300 kts | 311° |
| 2026-05-04 14:34 | 49.96894 | 8.88238 | 10275 ft | 312 kts | 336° |
| 2026-05-04 14:35 | 49.99049 | 8.87661 | 9604 ft | 323 kts | 5° |
| 2026-05-04 14:35 | 50.01198 | 8.88720 | 8886 ft | 329 kts | 34° |
| 2026-05-04 14:35 | 50.02778 | 8.91231 | 8172 ft | 323 kts | 63° |
| 2026-05-04 14:35 | 50.03545 | 8.94429 | 7495 ft | 310 kts | 75° |
| 2026-05-04 14:36 | 50.04215 | 8.97580 | 6826 ft | 304 kts | 71° |
| 2026-05-04 14:36 | 50.04935 | 9.00624 | 6242 ft | 296 kts | 70° |
| 2026-05-04 14:36 | 50.05669 | 9.03556 | 5729 ft | 285 kts | 65° |
| 2026-05-04 14:36 | 50.06798 | 9.05961 | 5226 ft | 270 kts | 36° |
| 2026-05-04 14:37 | 50.08421 | 9.07188 | 4730 ft | 255 kts | 6° |
| 2026-05-04 14:37 | 50.10141 | 9.07113 | 4220 ft | 244 kts | 347° |
| 2026-05-04 14:37 | 50.11785 | 9.06576 | 4009 ft | 237 kts | 345° |
| 2026-05-04 14:37 | 50.13286 | 9.05694 | 4017 ft | 229 kts | 320° |
| 2026-05-04 14:38 | 50.14252 | 9.03789 | 4013 ft | 225 kts | 286° |
| 2026-05-04 14:38 | 50.14250 | 9.01428 | 4017 ft | 222 kts | 248° |
| 2026-05-04 14:38 | 50.13607 | 8.99232 | 4009 ft | 223 kts | 248° |
| 2026-05-04 14:38 | 50.13048 | 8.96991 | 4012 ft | 224 kts | 250° |
| 2026-05-04 14:39 | 50.12511 | 8.94689 | 4008 ft | 219 kts | 250° |
| 2026-05-04 14:39 | 50.12008 | 8.92534 | 4008 ft | 205 kts | 251° |
| 2026-05-04 14:39 | 50.11527 | 8.90481 | 4018 ft | 204 kts | 251° |
| 2026-05-04 14:40 | 50.10547 | 8.86309 | 3955 ft | 204 kts | 251° |
| 2026-05-04 14:40 | 50.10067 | 8.84268 | 3791 ft | 202 kts | 250° |
| 2026-05-04 14:40 | 50.09583 | 8.82215 | 3514 ft | 201 kts | 251° |
| 2026-05-04 14:40 | 50.09104 | 8.80179 | 3254 ft | 199 kts | 251° |
| 2026-05-04 14:41 | 50.08632 | 8.78181 | 3009 ft | 193 kts | 250° |
| 2026-05-04 14:41 | 50.08173 | 8.76238 | 2730 ft | 190 kts | 251° |
| 2026-05-04 14:41 | 50.07391 | 8.72519 | 2253 ft | 171 kts | 262° |
| 2026-05-04 14:42 | 50.06942 | 8.69058 | 1833 ft | 160 kts | 253° |
| 2026-05-04 14:42 | 50.06576 | 8.67442 | 1598 ft | 158 kts | 250° |
| 2026-05-04 14:42 | 50.06193 | 8.65852 | 1452 ft | 156 kts | 251° |
| 2026-05-04 14:43 | 50.05816 | 8.64280 | 1281 ft | 154 kts | 251° |
| 2026-05-04 14:43 | 50.05437 | 8.62695 | 1061 ft | 156 kts | 249° |
| 2026-05-04 14:43 | 50.05070 | 8.61092 | 818 ft | 157 kts | 250° |
| 2026-05-04 14:43 | 50.04725 | 8.59553 | 557 ft | 159 kts | 248° |
| 2026-05-04 14:44 | 50.04339 | 8.57960 | 375 ft | 156 kts | 247° |
| 2026-05-04 14:44 | 50.04011 | 8.56588 | 358 ft | 100 kts | 251° |
| 2026-05-04 14:44 | 50.03885 | 8.55979 | 351 ft | 25 kts | 263° |
| 2026-05-04 14:44 | 50.03895 | 8.55759 | 358 ft | 2 kts | 280° |
| 2026-05-04 14:45 | 50.03898 | 8.55733 | 357 ft | 2 kts | 280° |
| 2026-05-04 14:45 | 50.03914 | 8.55662 | 355 ft | 13 kts | 304° |
| 2026-05-04 14:45 | 50.03992 | 8.55716 | 351 ft | 19 kts | 67° |
| 2026-05-04 14:45 | 50.04037 | 8.55901 | 352 ft | 18 kts | 70° |
| 2026-05-04 14:46 | 50.04077 | 8.56069 | 354 ft | 16 kts | 70° |
| 2026-05-04 14:46 | 50.04113 | 8.56218 | 358 ft | 15 kts | 70° |
| 2026-05-04 14:46 | 50.04157 | 8.56400 | 360 ft | 18 kts | 69° |
| 2026-05-04 14:46 | 50.04198 | 8.56570 | 361 ft | 16 kts | 70° |
| 2026-05-04 14:47 | 50.04232 | 8.56715 | 360 ft | 13 kts | 70° |
| 2026-05-04 14:47 | 50.04305 | 8.56814 | 362 ft | 19 kts | 13° |
| 2026-05-04 14:47 | 50.04434 | 8.56850 | 366 ft | 18 kts | 9° |
| 2026-05-04 14:47 | 50.04556 | 8.56892 | 363 ft | 17 kts | 14° |
| 2026-05-04 14:48 | 50.04675 | 8.56950 | 361 ft | 18 kts | 23° |
| 2026-05-04 14:48 | 50.04782 | 8.57026 | 363 ft | 16 kts | 25° |
| 2026-05-04 14:48 | 50.04875 | 8.57079 | 357 ft | 11 kts | 356° |
| 2026-05-04 14:48 | 50.04910 | 8.57067 | 359 ft | 3 kts | 355° |
| 2026-05-04 14:49 | 50.04914 | 8.57077 | 361 ft | 0 kts | 57° |
| 2026-05-04 14:49 | 50.04914 | 8.57080 | 361 ft | 0 kts | 74° |